sensor_id;sensor_type;location;lat;lon;timestamp;P1;durP1;ratioP1;P2;durP2;ratioP2
36751;SDS011;22718;49.494;7.036;2022-09-23T00:00:33;2.03;;;0.57;;
36751;SDS011;22718;49.494;7.036;2022-09-23T00:02:59;2.58;;;0.60;;
36751;SDS011;22718;49.494;7.036;2022-09-23T00:05:29;2.15;;;0.63;;
36751;SDS011;22718;49.494;7.036;2022-09-23T00:07:55;2.80;;;0.98;;
36751;SDS011;22718;49.494;7.036;2022-09-23T00:10:22;3.30;;;0.63;;
36751;SDS011;22718;49.494;7.036;2022-09-23T00:12:49;5.53;;;0.60;;
36751;SDS011;22718;49.494;7.036;2022-09-23T00:15:15;4.20;;;0.60;;
36751;SDS011;22718;49.494;7.036;2022-09-23T00:17:41;4.88;;;1.48;;
36751;SDS011;22718;49.494;7.036;2022-09-23T00:20:07;6.13;;;1.30;;
36751;SDS011;22718;49.494;7.036;2022-09-23T00:22:37;4.55;;;0.93;;
36751;SDS011;22718;49.494;7.036;2022-09-23T00:25:03;2.35;;;0.60;;
36751;SDS011;22718;49.494;7.036;2022-09-23T00:27:30;2.88;;;0.88;;
36751;SDS011;22718;49.494;7.036;2022-09-23T00:29:57;3.80;;;0.73;;
36751;SDS011;22718;49.494;7.036;2022-09-23T00:32:23;4.28;;;0.60;;
36751;SDS011;22718;49.494;7.036;2022-09-23T00:34:49;5.63;;;0.80;;
36751;SDS011;22718;49.494;7.036;2022-09-23T00:37:16;4.25;;;1.52;;
36751;SDS011;22718;49.494;7.036;2022-09-23T00:39:43;2.42;;;0.82;;
36751;SDS011;22718;49.494;7.036;2022-09-23T00:42:13;2.78;;;0.70;;
36751;SDS011;22718;49.494;7.036;2022-09-23T00:47:13;1.73;;;0.40;;
36751;SDS011;22718;49.494;7.036;2022-09-23T00:52:34;2.85;;;0.80;;
36751;SDS011;22718;49.494;7.036;2022-09-23T00:55:02;2.72;;;0.60;;
36751;SDS011;22718;49.494;7.036;2022-09-23T00:57:50;5.38;;;0.82;;
36751;SDS011;22718;49.494;7.036;2022-09-23T01:00:19;1.92;;;0.50;;
36751;SDS011;22718;49.494;7.036;2022-09-23T01:02:45;3.08;;;0.85;;
36751;SDS011;22718;49.494;7.036;2022-09-23T01:05:11;3.22;;;0.80;;
36751;SDS011;22718;49.494;7.036;2022-09-23T01:07:38;2.03;;;0.65;;
36751;SDS011;22718;49.494;7.036;2022-09-23T01:10:04;3.97;;;0.73;;
36751;SDS011;22718;49.494;7.036;2022-09-23T01:12:45;2.50;;;0.80;;
36751;SDS011;22718;49.494;7.036;2022-09-23T01:18:27;3.92;;;0.85;;
36751;SDS011;22718;49.494;7.036;2022-09-23T01:35:37;2.22;;;0.60;;
36751;SDS011;22718;49.494;7.036;2022-09-23T01:38:14;2.45;;;0.93;;
36751;SDS011;22718;49.494;7.036;2022-09-23T01:41:14;2.53;;;0.65;;
36751;SDS011;22718;49.494;7.036;2022-09-23T01:47:07;2.17;;;0.70;;
36751;SDS011;22718;49.494;7.036;2022-09-23T01:54:49;5.03;;;0.60;;
36751;SDS011;22718;49.494;7.036;2022-09-23T01:57:56;3.97;;;0.65;;
36751;SDS011;22718;49.494;7.036;2022-09-23T02:00:17;1.80;;;0.82;;
36751;SDS011;22718;49.494;7.036;2022-09-23T02:02:56;3.78;;;0.60;;
36751;SDS011;22718;49.494;7.036;2022-09-23T02:05:29;4.93;;;0.50;;
36751;SDS011;22718;49.494;7.036;2022-09-23T02:08:40;4.65;;;0.60;;
36751;SDS011;22718;49.494;7.036;2022-09-23T02:10:56;2.35;;;0.45;;
36751;SDS011;22718;49.494;7.036;2022-09-23T02:16:13;2.60;;;0.65;;
36751;SDS011;22718;49.494;7.036;2022-09-23T02:19:12;4.28;;;0.93;;
36751;SDS011;22718;49.494;7.036;2022-09-23T02:21:43;2.15;;;0.65;;
36751;SDS011;22718;49.494;7.036;2022-09-23T02:24:17;2.33;;;0.60;;
36751;SDS011;22718;49.494;7.036;2022-09-23T02:26:50;2.15;;;0.85;;
36751;SDS011;22718;49.494;7.036;2022-09-23T02:34:58;3.78;;;0.80;;
36751;SDS011;22718;49.494;7.036;2022-09-23T02:37:48;1.58;;;0.45;;
36751;SDS011;22718;49.494;7.036;2022-09-23T02:40:35;2.83;;;0.90;;
36751;SDS011;22718;49.494;7.036;2022-09-23T02:45:47;3.13;;;0.65;;
36751;SDS011;22718;49.494;7.036;2022-09-23T02:48:21;1.63;;;0.70;;
36751;SDS011;22718;49.494;7.036;2022-09-23T02:50:50;2.97;;;0.90;;
36751;SDS011;22718;49.494;7.036;2022-09-23T02:53:17;2.67;;;0.77;;
36751;SDS011;22718;49.494;7.036;2022-09-23T02:55:43;2.92;;;0.85;;
36751;SDS011;22718;49.494;7.036;2022-09-23T02:58:09;4.45;;;0.60;;
36751;SDS011;22718;49.494;7.036;2022-09-23T03:09:35;3.47;;;0.70;;
36751;SDS011;22718;49.494;7.036;2022-09-23T03:14:40;2.95;;;0.88;;
36751;SDS011;22718;49.494;7.036;2022-09-23T03:17:17;2.72;;;0.65;;
36751;SDS011;22718;49.494;7.036;2022-09-23T03:19:59;2.72;;;0.70;;
36751;SDS011;22718;49.494;7.036;2022-09-23T03:22:32;3.00;;;0.80;;
36751;SDS011;22718;49.494;7.036;2022-09-23T03:25:08;5.55;;;1.10;;
36751;SDS011;22718;49.494;7.036;2022-09-23T03:30:03;2.55;;;0.77;;
36751;SDS011;22718;49.494;7.036;2022-09-23T03:32:31;2.65;;;0.77;;
36751;SDS011;22718;49.494;7.036;2022-09-23T03:34:59;3.17;;;0.70;;
36751;SDS011;22718;49.494;7.036;2022-09-23T03:40:09;3.20;;;1.10;;
36751;SDS011;22718;49.494;7.036;2022-09-23T03:42:53;5.30;;;1.42;;
36751;SDS011;22718;49.494;7.036;2022-09-23T03:45:21;4.18;;;1.33;;
36751;SDS011;22718;49.494;7.036;2022-09-23T03:47:51;8.10;;;1.30;;
36751;SDS011;22718;49.494;7.036;2022-09-23T03:50:17;5.05;;;1.02;;
36751;SDS011;22718;49.494;7.036;2022-09-23T03:52:43;3.75;;;1.52;;
36751;SDS011;22718;49.494;7.036;2022-09-23T03:55:09;2.63;;;0.90;;
36751;SDS011;22718;49.494;7.036;2022-09-23T03:57:35;4.10;;;0.88;;
36751;SDS011;22718;49.494;7.036;2022-09-23T04:00:02;3.60;;;0.82;;
36751;SDS011;22718;49.494;7.036;2022-09-23T04:02:29;3.60;;;1.20;;
36751;SDS011;22718;49.494;7.036;2022-09-23T04:04:55;3.55;;;0.93;;
36751;SDS011;22718;49.494;7.036;2022-09-23T04:07:21;4.15;;;0.93;;
36751;SDS011;22718;49.494;7.036;2022-09-23T04:09:47;3.78;;;1.20;;
36751;SDS011;22718;49.494;7.036;2022-09-23T04:12:13;5.68;;;0.80;;
36751;SDS011;22718;49.494;7.036;2022-09-23T04:14:40;3.95;;;1.40;;
36751;SDS011;22718;49.494;7.036;2022-09-23T04:17:06;2.95;;;1.13;;
36751;SDS011;22718;49.494;7.036;2022-09-23T04:19:32;3.53;;;1.30;;
36751;SDS011;22718;49.494;7.036;2022-09-23T04:21:58;2.88;;;1.08;;
36751;SDS011;22718;49.494;7.036;2022-09-23T04:24:25;3.55;;;1.30;;
36751;SDS011;22718;49.494;7.036;2022-09-23T04:26:54;3.00;;;0.98;;
36751;SDS011;22718;49.494;7.036;2022-09-23T04:29:20;3.70;;;1.17;;
36751;SDS011;22718;49.494;7.036;2022-09-23T04:31:47;4.63;;;0.93;;
36751;SDS011;22718;49.494;7.036;2022-09-23T04:34:12;3.83;;;1.25;;
36751;SDS011;22718;49.494;7.036;2022-09-23T04:36:40;2.88;;;0.80;;
36751;SDS011;22718;49.494;7.036;2022-09-23T04:39:06;2.95;;;1.13;;
36751;SDS011;22718;49.494;7.036;2022-09-23T04:41:31;5.35;;;1.25;;
36751;SDS011;22718;49.494;7.036;2022-09-23T04:43:58;3.03;;;1.00;;
36751;SDS011;22718;49.494;7.036;2022-09-23T04:46:24;4.40;;;1.08;;
36751;SDS011;22718;49.494;7.036;2022-09-23T04:48:49;2.70;;;1.02;;
36751;SDS011;22718;49.494;7.036;2022-09-23T04:51:16;4.75;;;1.48;;
36751;SDS011;22718;49.494;7.036;2022-09-23T04:53:44;3.88;;;1.15;;
36751;SDS011;22718;49.494;7.036;2022-09-23T04:56:16;3.83;;;1.38;;
36751;SDS011;22718;49.494;7.036;2022-09-23T04:58:46;3.95;;;1.52;;
36751;SDS011;22718;49.494;7.036;2022-09-23T05:01:13;5.78;;;1.20;;
36751;SDS011;22718;49.494;7.036;2022-09-23T05:03:41;5.60;;;1.15;;
36751;SDS011;22718;49.494;7.036;2022-09-23T05:06:08;4.65;;;1.55;;
36751;SDS011;22718;49.494;7.036;2022-09-23T05:08:37;4.32;;;1.15;;
36751;SDS011;22718;49.494;7.036;2022-09-23T05:11:03;3.58;;;1.50;;
36751;SDS011;22718;49.494;7.036;2022-09-23T05:13:30;7.43;;;2.17;;
36751;SDS011;22718;49.494;7.036;2022-09-23T05:16:00;3.92;;;1.30;;
36751;SDS011;22718;49.494;7.036;2022-09-23T05:18:29;4.97;;;1.27;;
36751;SDS011;22718;49.494;7.036;2022-09-23T05:20:56;4.15;;;1.90;;
36751;SDS011;22718;49.494;7.036;2022-09-23T05:23:22;3.72;;;1.15;;
36751;SDS011;22718;49.494;7.036;2022-09-23T05:25:48;2.95;;;1.00;;
36751;SDS011;22718;49.494;7.036;2022-09-23T05:28:20;8.05;;;1.30;;
36751;SDS011;22718;49.494;7.036;2022-09-23T05:30:46;4.25;;;1.23;;
36751;SDS011;22718;49.494;7.036;2022-09-23T05:33:12;3.40;;;1.42;;
36751;SDS011;22718;49.494;7.036;2022-09-23T05:35:38;6.63;;;2.17;;
36751;SDS011;22718;49.494;7.036;2022-09-23T05:38:10;3.05;;;1.00;;
36751;SDS011;22718;49.494;7.036;2022-09-23T05:40:36;8.40;;;1.17;;
36751;SDS011;22718;49.494;7.036;2022-09-23T05:43:01;3.45;;;1.13;;
36751;SDS011;22718;49.494;7.036;2022-09-23T05:45:27;5.07;;;1.20;;
36751;SDS011;22718;49.494;7.036;2022-09-23T05:47:53;3.75;;;1.17;;
36751;SDS011;22718;49.494;7.036;2022-09-23T05:50:19;4.30;;;1.73;;
36751;SDS011;22718;49.494;7.036;2022-09-23T05:52:45;6.03;;;1.55;;
36751;SDS011;22718;49.494;7.036;2022-09-23T05:55:10;8.48;;;1.20;;
36751;SDS011;22718;49.494;7.036;2022-09-23T05:57:36;3.40;;;1.38;;
36751;SDS011;22718;49.494;7.036;2022-09-23T06:00:02;5.53;;;1.55;;
36751;SDS011;22718;49.494;7.036;2022-09-23T06:02:28;5.40;;;1.73;;
36751;SDS011;22718;49.494;7.036;2022-09-23T06:04:53;3.92;;;1.20;;
36751;SDS011;22718;49.494;7.036;2022-09-23T06:07:19;4.82;;;1.58;;
36751;SDS011;22718;49.494;7.036;2022-09-23T06:09:45;3.55;;;1.58;;
36751;SDS011;22718;49.494;7.036;2022-09-23T06:12:10;3.22;;;1.38;;
36751;SDS011;22718;49.494;7.036;2022-09-23T06:14:38;4.43;;;1.40;;
36751;SDS011;22718;49.494;7.036;2022-09-23T06:17:03;4.07;;;1.83;;
36751;SDS011;22718;49.494;7.036;2022-09-23T06:19:29;4.43;;;1.20;;
36751;SDS011;22718;49.494;7.036;2022-09-23T06:21:55;4.10;;;1.35;;
36751;SDS011;22718;49.494;7.036;2022-09-23T06:24:20;4.13;;;1.63;;
36751;SDS011;22718;49.494;7.036;2022-09-23T06:26:46;4.45;;;1.20;;
36751;SDS011;22718;49.494;7.036;2022-09-23T06:29:12;4.60;;;1.60;;
36751;SDS011;22718;49.494;7.036;2022-09-23T06:31:38;4.75;;;1.65;;
36751;SDS011;22718;49.494;7.036;2022-09-23T06:34:05;3.75;;;1.75;;
36751;SDS011;22718;49.494;7.036;2022-09-23T06:36:33;4.65;;;1.20;;
36751;SDS011;22718;49.494;7.036;2022-09-23T06:38:58;3.03;;;1.35;;
36751;SDS011;22718;49.494;7.036;2022-09-23T06:41:26;2.97;;;1.23;;
36751;SDS011;22718;49.494;7.036;2022-09-23T06:43:52;3.33;;;1.52;;
36751;SDS011;22718;49.494;7.036;2022-09-23T06:46:17;5.45;;;1.35;;
36751;SDS011;22718;49.494;7.036;2022-09-23T06:48:45;3.53;;;1.33;;
36751;SDS011;22718;49.494;7.036;2022-09-23T06:51:13;5.65;;;1.40;;
36751;SDS011;22718;49.494;7.036;2022-09-23T06:53:43;3.58;;;1.10;;
36751;SDS011;22718;49.494;7.036;2022-09-23T06:56:10;3.17;;;1.15;;
36751;SDS011;22718;49.494;7.036;2022-09-23T06:58:35;5.88;;;1.30;;
36751;SDS011;22718;49.494;7.036;2022-09-23T07:03:29;4.50;;;1.77;;
36751;SDS011;22718;49.494;7.036;2022-09-23T07:05:55;3.53;;;1.17;;
36751;SDS011;22718;49.494;7.036;2022-09-23T07:08:22;3.67;;;1.00;;
36751;SDS011;22718;49.494;7.036;2022-09-23T07:10:54;7.10;;;1.30;;
36751;SDS011;22718;49.494;7.036;2022-09-23T07:13:21;2.65;;;0.70;;
36751;SDS011;22718;49.494;7.036;2022-09-23T07:15:51;3.70;;;1.02;;
36751;SDS011;22718;49.494;7.036;2022-09-23T07:20:44;5.00;;;1.77;;
36751;SDS011;22718;49.494;7.036;2022-09-23T07:23:10;4.05;;;1.23;;
36751;SDS011;22718;49.494;7.036;2022-09-23T07:25:39;4.45;;;1.02;;
36751;SDS011;22718;49.494;7.036;2022-09-23T07:28:05;2.67;;;1.02;;
36751;SDS011;22718;49.494;7.036;2022-09-23T07:30:31;3.22;;;1.20;;
36751;SDS011;22718;49.494;7.036;2022-09-23T07:33:00;3.10;;;0.98;;
36751;SDS011;22718;49.494;7.036;2022-09-23T07:35:26;3.33;;;0.93;;
36751;SDS011;22718;49.494;7.036;2022-09-23T07:37:52;3.72;;;0.90;;
36751;SDS011;22718;49.494;7.036;2022-09-23T07:40:17;2.92;;;1.15;;
36751;SDS011;22718;49.494;7.036;2022-09-23T07:42:43;2.60;;;1.10;;
36751;SDS011;22718;49.494;7.036;2022-09-23T07:45:09;5.95;;;2.03;;
36751;SDS011;22718;49.494;7.036;2022-09-23T07:47:34;3.00;;;1.20;;
36751;SDS011;22718;49.494;7.036;2022-09-23T07:50:03;4.30;;;0.90;;
36751;SDS011;22718;49.494;7.036;2022-09-23T07:52:29;2.90;;;1.10;;
36751;SDS011;22718;49.494;7.036;2022-09-23T07:54:55;8.30;;;1.10;;
36751;SDS011;22718;49.494;7.036;2022-09-23T07:57:20;3.30;;;1.20;;
36751;SDS011;22718;49.494;7.036;2022-09-23T07:59:46;3.15;;;1.00;;
36751;SDS011;22718;49.494;7.036;2022-09-23T08:02:12;3.63;;;1.10;;
36751;SDS011;22718;49.494;7.036;2022-09-23T08:04:40;3.28;;;1.15;;
36751;SDS011;22718;49.494;7.036;2022-09-23T08:07:06;4.63;;;1.20;;
36751;SDS011;22718;49.494;7.036;2022-09-23T08:09:37;3.67;;;0.80;;
36751;SDS011;22718;49.494;7.036;2022-09-23T08:12:06;3.08;;;0.73;;
36751;SDS011;22718;49.494;7.036;2022-09-23T08:14:32;3.15;;;0.95;;
36751;SDS011;22718;49.494;7.036;2022-09-23T08:16:58;4.20;;;0.93;;
36751;SDS011;22718;49.494;7.036;2022-09-23T08:19:24;6.03;;;0.90;;
36751;SDS011;22718;49.494;7.036;2022-09-23T08:21:49;2.72;;;0.93;;
36751;SDS011;22718;49.494;7.036;2022-09-23T08:24:16;2.35;;;0.90;;
36751;SDS011;22718;49.494;7.036;2022-09-23T08:26:44;3.13;;;0.75;;
36751;SDS011;22718;49.494;7.036;2022-09-23T08:29:14;2.67;;;0.80;;
36751;SDS011;22718;49.494;7.036;2022-09-23T08:31:41;4.03;;;0.85;;
36751;SDS011;22718;49.494;7.036;2022-09-23T08:34:07;2.80;;;0.88;;
36751;SDS011;22718;49.494;7.036;2022-09-23T08:36:34;4.72;;;0.70;;
36751;SDS011;22718;49.494;7.036;2022-09-23T08:38:59;2.00;;;0.90;;
36751;SDS011;22718;49.494;7.036;2022-09-23T08:47:22;3.17;;;0.70;;
36751;SDS011;22718;49.494;7.036;2022-09-23T08:49:55;2.97;;;0.65;;
36751;SDS011;22718;49.494;7.036;2022-09-23T08:55:45;4.43;;;0.50;;
36751;SDS011;22718;49.494;7.036;2022-09-23T09:00:48;3.05;;;0.60;;
36751;SDS011;22718;49.494;7.036;2022-09-23T09:03:24;2.08;;;0.50;;
36751;SDS011;22718;49.494;7.036;2022-09-23T09:05:56;2.75;;;0.60;;
36751;SDS011;22718;49.494;7.036;2022-09-23T09:08:41;1.80;;;0.55;;
36751;SDS011;22718;49.494;7.036;2022-09-23T09:11:11;3.35;;;0.70;;
36751;SDS011;22718;49.494;7.036;2022-09-23T09:14:01;3.40;;;0.65;;
36751;SDS011;22718;49.494;7.036;2022-09-23T09:16:52;2.28;;;0.70;;
36751;SDS011;22718;49.494;7.036;2022-09-23T09:19:44;4.20;;;0.73;;
36751;SDS011;22718;49.494;7.036;2022-09-23T09:25:43;4.57;;;0.90;;
36751;SDS011;22718;49.494;7.036;2022-09-23T09:30:52;4.15;;;0.77;;
36751;SDS011;22718;49.494;7.036;2022-09-23T09:36:31;2.13;;;0.75;;
36751;SDS011;22718;49.494;7.036;2022-09-23T09:39:13;3.67;;;0.75;;
36751;SDS011;22718;49.494;7.036;2022-09-23T09:41:46;3.33;;;0.88;;
36751;SDS011;22718;49.494;7.036;2022-09-23T09:44:27;2.83;;;0.60;;
36751;SDS011;22718;49.494;7.036;2022-09-23T09:49:58;4.38;;;0.57;;
36751;SDS011;22718;49.494;7.036;2022-09-23T09:52:29;2.85;;;0.80;;
36751;SDS011;22718;49.494;7.036;2022-09-23T09:55:15;1.77;;;0.50;;
36751;SDS011;22718;49.494;7.036;2022-09-23T09:57:59;2.83;;;0.60;;
36751;SDS011;22718;49.494;7.036;2022-09-23T10:02:56;2.10;;;0.63;;
36751;SDS011;22718;49.494;7.036;2022-09-23T10:11:26;3.25;;;0.95;;
36751;SDS011;22718;49.494;7.036;2022-09-23T10:14:04;3.40;;;0.73;;
36751;SDS011;22718;49.494;7.036;2022-09-23T10:16:36;5.15;;;0.60;;
36751;SDS011;22718;49.494;7.036;2022-09-23T10:19:23;2.75;;;0.40;;
36751;SDS011;22718;49.494;7.036;2022-09-23T10:21:52;3.15;;;0.68;;
36751;SDS011;22718;49.494;7.036;2022-09-23T10:24:24;5.18;;;0.80;;
36751;SDS011;22718;49.494;7.036;2022-09-23T10:29:32;3.33;;;0.60;;
36751;SDS011;22718;49.494;7.036;2022-09-23T10:34:55;4.00;;;0.47;;
36751;SDS011;22718;49.494;7.036;2022-09-23T10:37:47;2.38;;;0.52;;
36751;SDS011;22718;49.494;7.036;2022-09-23T10:46:46;2.78;;;0.50;;
36751;SDS011;22718;49.494;7.036;2022-09-23T10:49:44;2.63;;;0.60;;
36751;SDS011;22718;49.494;7.036;2022-09-23T10:57:51;4.57;;;0.75;;
36751;SDS011;22718;49.494;7.036;2022-09-23T11:23:05;1.88;;;0.50;;
36751;SDS011;22718;49.494;7.036;2022-09-23T11:34:36;2.50;;;0.50;;
36751;SDS011;22718;49.494;7.036;2022-09-23T11:37:27;2.22;;;0.50;;
36751;SDS011;22718;49.494;7.036;2022-09-23T11:42:28;3.80;;;0.70;;
36751;SDS011;22718;49.494;7.036;2022-09-23T11:45:15;2.67;;;0.40;;
36751;SDS011;22718;49.494;7.036;2022-09-23T11:47:47;2.22;;;0.40;;
36751;SDS011;22718;49.494;7.036;2022-09-23T11:50:39;2.47;;;0.55;;
36751;SDS011;22718;49.494;7.036;2022-09-23T11:56:03;2.60;;;0.50;;
36751;SDS011;22718;49.494;7.036;2022-09-23T11:58:38;2.03;;;0.40;;
36751;SDS011;22718;49.494;7.036;2022-09-23T12:01:24;2.70;;;0.95;;
36751;SDS011;22718;49.494;7.036;2022-09-23T12:03:58;5.43;;;0.55;;
36751;SDS011;22718;49.494;7.036;2022-09-23T12:12:30;3.33;;;0.63;;
36751;SDS011;22718;49.494;7.036;2022-09-23T12:24:00;1.98;;;0.30;;
36751;SDS011;22718;49.494;7.036;2022-09-23T12:26:44;3.83;;;0.30;;
36751;SDS011;22718;49.494;7.036;2022-09-23T12:29:21;2.78;;;0.50;;
36751;SDS011;22718;49.494;7.036;2022-09-23T12:31:50;3.60;;;0.40;;
36751;SDS011;22718;49.494;7.036;2022-09-23T12:34:21;2.80;;;0.40;;
36751;SDS011;22718;49.494;7.036;2022-09-23T12:37:00;2.53;;;0.30;;
36751;SDS011;22718;49.494;7.036;2022-09-23T12:39:36;3.28;;;0.45;;
36751;SDS011;22718;49.494;7.036;2022-09-23T12:42:04;5.32;;;0.60;;
36751;SDS011;22718;49.494;7.036;2022-09-23T12:44:49;1.55;;;0.40;;
36751;SDS011;22718;49.494;7.036;2022-09-23T12:47:47;4.07;;;0.28;;
36751;SDS011;22718;49.494;7.036;2022-09-23T12:56:00;2.28;;;0.43;;
36751;SDS011;22718;49.494;7.036;2022-09-23T13:01:34;3.97;;;0.95;;
36751;SDS011;22718;49.494;7.036;2022-09-23T13:07:15;2.20;;;0.40;;
36751;SDS011;22718;49.494;7.036;2022-09-23T13:09:47;1.90;;;0.30;;
36751;SDS011;22718;49.494;7.036;2022-09-23T13:12:22;3.25;;;0.40;;
36751;SDS011;22718;49.494;7.036;2022-09-23T13:14:52;4.93;;;0.65;;
36751;SDS011;22718;49.494;7.036;2022-09-23T13:17:30;2.58;;;0.30;;
36751;SDS011;22718;49.494;7.036;2022-09-23T13:20:04;5.85;;;0.60;;
36751;SDS011;22718;49.494;7.036;2022-09-23T13:25:17;0.88;;;0.30;;
36751;SDS011;22718;49.494;7.036;2022-09-23T13:27:50;3.05;;;0.43;;
36751;SDS011;22718;49.494;7.036;2022-09-23T13:30:20;4.75;;;0.50;;
36751;SDS011;22718;49.494;7.036;2022-09-23T13:35:50;4.43;;;0.60;;
36751;SDS011;22718;49.494;7.036;2022-09-23T13:40:50;4.15;;;0.40;;
36751;SDS011;22718;49.494;7.036;2022-09-23T13:43:26;2.65;;;0.40;;
36751;SDS011;22718;49.494;7.036;2022-09-23T13:46:00;3.75;;;0.50;;
36751;SDS011;22718;49.494;7.036;2022-09-23T13:48:40;3.40;;;0.40;;
36751;SDS011;22718;49.494;7.036;2022-09-23T13:51:10;2.17;;;0.40;;
36751;SDS011;22718;49.494;7.036;2022-09-23T13:53:43;2.33;;;0.57;;
36751;SDS011;22718;49.494;7.036;2022-09-23T13:56:20;3.85;;;0.60;;
36751;SDS011;22718;49.494;7.036;2022-09-23T13:58:48;2.97;;;0.43;;
36751;SDS011;22718;49.494;7.036;2022-09-23T14:01:21;3.15;;;0.45;;
36751;SDS011;22718;49.494;7.036;2022-09-23T14:03:56;6.68;;;0.65;;
36751;SDS011;22718;49.494;7.036;2022-09-23T14:06:25;3.80;;;0.60;;
36751;SDS011;22718;49.494;7.036;2022-09-23T14:08:51;4.93;;;0.75;;
36751;SDS011;22718;49.494;7.036;2022-09-23T14:11:19;2.80;;;0.50;;
36751;SDS011;22718;49.494;7.036;2022-09-23T14:13:57;5.40;;;0.57;;
36751;SDS011;22718;49.494;7.036;2022-09-23T14:16:31;4.50;;;0.90;;
36751;SDS011;22718;49.494;7.036;2022-09-23T14:19:01;3.97;;;0.68;;
36751;SDS011;22718;49.494;7.036;2022-09-23T14:21:32;3.33;;;0.50;;
36751;SDS011;22718;49.494;7.036;2022-09-23T14:29:36;2.13;;;0.57;;
36751;SDS011;22718;49.494;7.036;2022-09-23T14:32:05;2.63;;;0.70;;
36751;SDS011;22718;49.494;7.036;2022-09-23T14:37:27;2.95;;;0.55;;
36751;SDS011;22718;49.494;7.036;2022-09-23T14:45:56;3.58;;;0.40;;
36751;SDS011;22718;49.494;7.036;2022-09-23T14:48:23;3.25;;;0.50;;
36751;SDS011;22718;49.494;7.036;2022-09-23T14:50:56;1.42;;;0.40;;
36751;SDS011;22718;49.494;7.036;2022-09-23T14:58:42;5.20;;;0.70;;
36751;SDS011;22718;49.494;7.036;2022-09-23T15:03:58;2.42;;;0.80;;
36751;SDS011;22718;49.494;7.036;2022-09-23T15:06:36;2.92;;;0.40;;
36751;SDS011;22718;49.494;7.036;2022-09-23T15:09:04;2.58;;;0.40;;
36751;SDS011;22718;49.494;7.036;2022-09-23T15:11:31;1.65;;;0.40;;
36751;SDS011;22718;49.494;7.036;2022-09-23T15:14:00;1.75;;;0.40;;
36751;SDS011;22718;49.494;7.036;2022-09-23T15:16:27;6.00;;;1.08;;
36751;SDS011;22718;49.494;7.036;2022-09-23T15:18:55;2.90;;;0.68;;
36751;SDS011;22718;49.494;7.036;2022-09-23T15:21:23;2.58;;;0.40;;
36751;SDS011;22718;49.494;7.036;2022-09-23T15:23:55;6.78;;;0.35;;
36751;SDS011;22718;49.494;7.036;2022-09-23T15:26:22;2.50;;;0.40;;
36751;SDS011;22718;49.494;7.036;2022-09-23T15:28:50;1.58;;;0.25;;
36751;SDS011;22718;49.494;7.036;2022-09-23T15:31:20;4.15;;;0.47;;
36751;SDS011;22718;49.494;7.036;2022-09-23T15:33:50;1.85;;;0.47;;
36751;SDS011;22718;49.494;7.036;2022-09-23T15:36:17;3.20;;;0.38;;
36751;SDS011;22718;49.494;7.036;2022-09-23T15:38:50;4.00;;;0.40;;
36751;SDS011;22718;49.494;7.036;2022-09-23T15:41:16;1.75;;;0.30;;
36751;SDS011;22718;49.494;7.036;2022-09-23T15:43:42;3.97;;;0.40;;
36751;SDS011;22718;49.494;7.036;2022-09-23T15:46:13;2.38;;;0.30;;
36751;SDS011;22718;49.494;7.036;2022-09-23T15:48:53;1.50;;;0.35;;
36751;SDS011;22718;49.494;7.036;2022-09-23T15:51:22;3.83;;;0.85;;
36751;SDS011;22718;49.494;7.036;2022-09-23T15:53:48;3.13;;;0.30;;
36751;SDS011;22718;49.494;7.036;2022-09-23T15:56:14;2.25;;;0.30;;
36751;SDS011;22718;49.494;7.036;2022-09-23T15:58:41;2.03;;;1.02;;
36751;SDS011;22718;49.494;7.036;2022-09-23T16:01:06;3.55;;;0.63;;
36751;SDS011;22718;49.494;7.036;2022-09-23T16:03:44;3.35;;;0.40;;
36751;SDS011;22718;49.494;7.036;2022-09-23T16:06:10;5.90;;;0.50;;
36751;SDS011;22718;49.494;7.036;2022-09-23T16:08:37;2.95;;;0.45;;
36751;SDS011;22718;49.494;7.036;2022-09-23T16:11:03;4.30;;;0.40;;
36751;SDS011;22718;49.494;7.036;2022-09-23T16:13:31;1.92;;;0.40;;
36751;SDS011;22718;49.494;7.036;2022-09-23T16:15:58;12.73;;;0.98;;
36751;SDS011;22718;49.494;7.036;2022-09-23T16:18:23;1.75;;;0.65;;
36751;SDS011;22718;49.494;7.036;2022-09-23T16:20:49;1.05;;;0.30;;
36751;SDS011;22718;49.494;7.036;2022-09-23T16:23:27;2.60;;;0.60;;
36751;SDS011;22718;49.494;7.036;2022-09-23T16:26:12;3.55;;;0.30;;
36751;SDS011;22718;49.494;7.036;2022-09-23T16:28:43;4.28;;;0.65;;
36751;SDS011;22718;49.494;7.036;2022-09-23T16:31:10;3.35;;;0.55;;
36751;SDS011;22718;49.494;7.036;2022-09-23T16:33:38;2.05;;;0.40;;
36751;SDS011;22718;49.494;7.036;2022-09-23T16:36:04;3.35;;;0.50;;
36751;SDS011;22718;49.494;7.036;2022-09-23T16:38:33;4.50;;;0.63;;
36751;SDS011;22718;49.494;7.036;2022-09-23T16:40:59;3.83;;;0.52;;
36751;SDS011;22718;49.494;7.036;2022-09-23T16:43:25;1.52;;;0.40;;
36751;SDS011;22718;49.494;7.036;2022-09-23T16:45:56;4.38;;;1.05;;
36751;SDS011;22718;49.494;7.036;2022-09-23T16:48:23;4.43;;;0.32;;
36751;SDS011;22718;49.494;7.036;2022-09-23T16:50:49;1.77;;;0.73;;
36751;SDS011;22718;49.494;7.036;2022-09-23T16:53:17;1.33;;;0.40;;
36751;SDS011;22718;49.494;7.036;2022-09-23T16:55:43;4.35;;;0.30;;
36751;SDS011;22718;49.494;7.036;2022-09-23T16:58:09;1.73;;;0.40;;
36751;SDS011;22718;49.494;7.036;2022-09-23T17:00:35;2.30;;;0.50;;
36751;SDS011;22718;49.494;7.036;2022-09-23T17:03:19;1.48;;;0.40;;
36751;SDS011;22718;49.494;7.036;2022-09-23T17:06:04;5.10;;;0.40;;
36751;SDS011;22718;49.494;7.036;2022-09-23T17:08:31;2.20;;;0.60;;
36751;SDS011;22718;49.494;7.036;2022-09-23T17:10:57;2.70;;;0.95;;
36751;SDS011;22718;49.494;7.036;2022-09-23T17:13:24;1.23;;;0.30;;
36751;SDS011;22718;49.494;7.036;2022-09-23T17:15:52;2.85;;;0.60;;
36751;SDS011;22718;49.494;7.036;2022-09-23T17:18:18;2.67;;;0.43;;
36751;SDS011;22718;49.494;7.036;2022-09-23T17:20:55;1.45;;;0.40;;
36751;SDS011;22718;49.494;7.036;2022-09-23T17:23:25;3.00;;;0.75;;
36751;SDS011;22718;49.494;7.036;2022-09-23T17:25:53;1.95;;;0.50;;
36751;SDS011;22718;49.494;7.036;2022-09-23T17:28:19;2.50;;;0.50;;
36751;SDS011;22718;49.494;7.036;2022-09-23T17:30:45;6.68;;;1.40;;
36751;SDS011;22718;49.494;7.036;2022-09-23T17:33:10;1.90;;;0.65;;
36751;SDS011;22718;49.494;7.036;2022-09-23T17:38:07;1.38;;;0.38;;
36751;SDS011;22718;49.494;7.036;2022-09-23T17:40:32;2.80;;;0.50;;
36751;SDS011;22718;49.494;7.036;2022-09-23T17:43:02;6.18;;;0.50;;
36751;SDS011;22718;49.494;7.036;2022-09-23T17:45:29;2.35;;;0.50;;
36751;SDS011;22718;49.494;7.036;2022-09-23T17:47:54;3.55;;;0.40;;
36751;SDS011;22718;49.494;7.036;2022-09-23T17:50:22;4.03;;;0.50;;
36751;SDS011;22718;49.494;7.036;2022-09-23T17:52:49;3.20;;;0.40;;
36751;SDS011;22718;49.494;7.036;2022-09-23T17:55:15;2.08;;;0.40;;
36751;SDS011;22718;49.494;7.036;2022-09-23T17:57:42;2.70;;;0.60;;
36751;SDS011;22718;49.494;7.036;2022-09-23T18:00:08;2.75;;;0.45;;
36751;SDS011;22718;49.494;7.036;2022-09-23T18:02:34;1.55;;;0.38;;
36751;SDS011;22718;49.494;7.036;2022-09-23T18:05:00;2.15;;;0.52;;
36751;SDS011;22718;49.494;7.036;2022-09-23T18:07:26;2.67;;;0.57;;
36751;SDS011;22718;49.494;7.036;2022-09-23T18:09:53;2.33;;;0.70;;
36751;SDS011;22718;49.494;7.036;2022-09-23T18:12:19;4.38;;;0.50;;
36751;SDS011;22718;49.494;7.036;2022-09-23T18:17:13;3.85;;;1.00;;
36751;SDS011;22718;49.494;7.036;2022-09-23T18:19:40;3.97;;;0.40;;
36751;SDS011;22718;49.494;7.036;2022-09-23T18:22:05;2.25;;;0.60;;
36751;SDS011;22718;49.494;7.036;2022-09-23T18:24:34;5.38;;;0.60;;
36751;SDS011;22718;49.494;7.036;2022-09-23T18:27:03;2.35;;;0.52;;
36751;SDS011;22718;49.494;7.036;2022-09-23T18:29:31;2.70;;;0.60;;
36751;SDS011;22718;49.494;7.036;2022-09-23T18:31:58;1.92;;;0.70;;
36751;SDS011;22718;49.494;7.036;2022-09-23T18:34:24;3.83;;;0.60;;
36751;SDS011;22718;49.494;7.036;2022-09-23T18:37:14;4.60;;;0.70;;
36751;SDS011;22718;49.494;7.036;2022-09-23T18:39:40;4.10;;;0.70;;